sensor_id;sensor_type;location;lat;lon;timestamp;P1;durP1;ratioP1;P2;durP2;ratioP2
44476;SDS011;30180;44.788;10.366;2022-12-07T00:01:24;4.70;;;2.70;;
44476;SDS011;30180;44.788;10.366;2022-12-07T00:03:55;4.20;;;2.50;;
44476;SDS011;30180;44.788;10.366;2022-12-07T00:06:30;4.63;;;2.40;;
44476;SDS011;30180;44.788;10.366;2022-12-07T00:08:59;4.22;;;2.42;;
44476;SDS011;30180;44.788;10.366;2022-12-07T00:11:27;3.35;;;2.28;;
44476;SDS011;30180;44.788;10.366;2022-12-07T00:13:57;5.25;;;2.78;;
44476;SDS011;30180;44.788;10.366;2022-12-07T00:16:27;3.95;;;2.28;;
44476;SDS011;30180;44.788;10.366;2022-12-07T00:18:57;3.87;;;2.37;;
44476;SDS011;30180;44.788;10.366;2022-12-07T00:21:26;4.20;;;2.15;;
44476;SDS011;30180;44.788;10.366;2022-12-07T00:23:56;4.70;;;2.27;;
44476;SDS011;30180;44.788;10.366;2022-12-07T00:26:25;4.75;;;2.45;;
44476;SDS011;30180;44.788;10.366;2022-12-07T00:28:57;5.53;;;2.60;;
44476;SDS011;30180;44.788;10.366;2022-12-07T00:31:27;4.40;;;2.38;;
44476;SDS011;30180;44.788;10.366;2022-12-07T00:33:57;4.17;;;2.50;;
44476;SDS011;30180;44.788;10.366;2022-12-07T00:36:25;4.22;;;2.53;;
44476;SDS011;30180;44.788;10.366;2022-12-07T00:38:54;4.63;;;2.60;;
44476;SDS011;30180;44.788;10.366;2022-12-07T00:41:23;4.70;;;2.58;;
44476;SDS011;30180;44.788;10.366;2022-12-07T00:43:52;4.28;;;2.45;;
44476;SDS011;30180;44.788;10.366;2022-12-07T00:46:22;4.50;;;2.20;;
44476;SDS011;30180;44.788;10.366;2022-12-07T00:48:51;4.20;;;2.33;;
44476;SDS011;30180;44.788;10.366;2022-12-07T00:51:21;4.40;;;2.42;;
44476;SDS011;30180;44.788;10.366;2022-12-07T00:53:51;4.03;;;2.60;;
44476;SDS011;30180;44.788;10.366;2022-12-07T00:56:20;4.65;;;2.38;;
44476;SDS011;30180;44.788;10.366;2022-12-07T00:58:51;5.13;;;2.40;;
44476;SDS011;30180;44.788;10.366;2022-12-07T01:01:21;3.97;;;2.65;;
44476;SDS011;30180;44.788;10.366;2022-12-07T01:03:50;4.60;;;2.33;;
44476;SDS011;30180;44.788;10.366;2022-12-07T01:06:19;4.80;;;2.40;;
44476;SDS011;30180;44.788;10.366;2022-12-07T01:08:48;5.60;;;2.45;;
44476;SDS011;30180;44.788;10.366;2022-12-07T01:11:18;4.35;;;2.35;;
44476;SDS011;30180;44.788;10.366;2022-12-07T01:13:49;4.20;;;2.42;;
44476;SDS011;30180;44.788;10.366;2022-12-07T01:16:19;3.50;;;2.20;;
44476;SDS011;30180;44.788;10.366;2022-12-07T01:18:49;3.90;;;2.28;;
44476;SDS011;30180;44.788;10.366;2022-12-07T01:21:20;3.78;;;2.10;;
44476;SDS011;30180;44.788;10.366;2022-12-07T01:23:49;4.13;;;2.22;;
44476;SDS011;30180;44.788;10.366;2022-12-07T01:26:19;4.03;;;2.30;;
44476;SDS011;30180;44.788;10.366;2022-12-07T01:28:48;4.30;;;2.35;;
44476;SDS011;30180;44.788;10.366;2022-12-07T01:31:18;3.28;;;1.98;;
44476;SDS011;30180;44.788;10.366;2022-12-07T01:33:50;3.43;;;2.00;;
44476;SDS011;30180;44.788;10.366;2022-12-07T01:36:20;3.50;;;2.00;;
44476;SDS011;30180;44.788;10.366;2022-12-07T01:38:51;3.20;;;2.10;;
44476;SDS011;30180;44.788;10.366;2022-12-07T01:41:23;4.57;;;2.38;;
44476;SDS011;30180;44.788;10.366;2022-12-07T01:44:08;4.28;;;2.47;;
44476;SDS011;30180;44.788;10.366;2022-12-07T01:46:59;4.95;;;2.90;;
44476;SDS011;30180;44.788;10.366;2022-12-07T01:49:31;4.20;;;2.42;;
44476;SDS011;30180;44.788;10.366;2022-12-07T01:52:03;4.18;;;2.45;;
44476;SDS011;30180;44.788;10.366;2022-12-07T01:54:36;5.05;;;2.58;;
44476;SDS011;30180;44.788;10.366;2022-12-07T01:57:05;3.60;;;2.25;;
44476;SDS011;30180;44.788;10.366;2022-12-07T01:59:35;4.30;;;2.58;;
44476;SDS011;30180;44.788;10.366;2022-12-07T02:02:04;3.38;;;2.17;;
44476;SDS011;30180;44.788;10.366;2022-12-07T02:04:39;3.92;;;2.40;;
44476;SDS011;30180;44.788;10.366;2022-12-07T02:07:07;5.30;;;2.80;;
44476;SDS011;30180;44.788;10.366;2022-12-07T02:09:36;4.13;;;2.28;;
44476;SDS011;30180;44.788;10.366;2022-12-07T02:12:04;3.88;;;2.10;;
44476;SDS011;30180;44.788;10.366;2022-12-07T02:14:33;3.17;;;2.00;;
44476;SDS011;30180;44.788;10.366;2022-12-07T02:17:05;3.50;;;2.30;;
44476;SDS011;30180;44.788;10.366;2022-12-07T02:19:50;3.08;;;2.05;;
44476;SDS011;30180;44.788;10.366;2022-12-07T02:22:52;3.72;;;2.55;;
44476;SDS011;30180;44.788;10.366;2022-12-07T02:25:55;3.92;;;2.17;;
44476;SDS011;30180;44.788;10.366;2022-12-07T02:28:45;3.25;;;2.20;;
44476;SDS011;30180;44.788;10.366;2022-12-07T02:31:19;4.53;;;2.60;;
44476;SDS011;30180;44.788;10.366;2022-12-07T02:33:50;5.03;;;2.30;;
44476;SDS011;30180;44.788;10.366;2022-12-07T02:36:25;4.70;;;2.40;;
44476;SDS011;30180;44.788;10.366;2022-12-07T02:38:58;3.60;;;2.33;;
44476;SDS011;30180;44.788;10.366;2022-12-07T02:41:31;3.83;;;2.17;;
44476;SDS011;30180;44.788;10.366;2022-12-07T02:44:06;5.10;;;2.80;;
44476;SDS011;30180;44.788;10.366;2022-12-07T02:46:40;3.55;;;2.28;;
44476;SDS011;30180;44.788;10.366;2022-12-07T02:49:10;3.20;;;2.10;;
44476;SDS011;30180;44.788;10.366;2022-12-07T02:51:39;4.63;;;2.30;;
44476;SDS011;30180;44.788;10.366;2022-12-07T02:54:10;3.53;;;2.30;;
44476;SDS011;30180;44.788;10.366;2022-12-07T02:56:41;4.00;;;2.40;;
44476;SDS011;30180;44.788;10.366;2022-12-07T02:59:21;4.10;;;2.38;;
44476;SDS011;30180;44.788;10.366;2022-12-07T03:02:00;3.55;;;2.13;;
44476;SDS011;30180;44.788;10.366;2022-12-07T03:04:41;3.70;;;2.10;;
44476;SDS011;30180;44.788;10.366;2022-12-07T03:07:17;3.33;;;2.17;;
44476;SDS011;30180;44.788;10.366;2022-12-07T03:09:53;4.20;;;2.45;;
44476;SDS011;30180;44.788;10.366;2022-12-07T03:12:29;3.70;;;2.30;;
44476;SDS011;30180;44.788;10.366;2022-12-07T03:15:05;3.22;;;2.22;;
44476;SDS011;30180;44.788;10.366;2022-12-07T03:17:38;3.85;;;2.33;;
44476;SDS011;30180;44.788;10.366;2022-12-07T03:20:11;4.35;;;2.25;;
44476;SDS011;30180;44.788;10.366;2022-12-07T03:22:41;4.60;;;2.55;;
44476;SDS011;30180;44.788;10.366;2022-12-07T03:25:11;4.60;;;2.50;;
44476;SDS011;30180;44.788;10.366;2022-12-07T03:27:44;3.88;;;2.40;;
44476;SDS011;30180;44.788;10.366;2022-12-07T03:30:18;3.72;;;2.33;;
44476;SDS011;30180;44.788;10.366;2022-12-07T03:32:48;3.60;;;2.25;;
44476;SDS011;30180;44.788;10.366;2022-12-07T03:35:22;2.65;;;2.00;;
44476;SDS011;30180;44.788;10.366;2022-12-07T03:37:54;3.30;;;2.10;;
44476;SDS011;30180;44.788;10.366;2022-12-07T03:40:28;4.50;;;2.50;;
44476;SDS011;30180;44.788;10.366;2022-12-07T03:42:59;4.68;;;2.30;;
44476;SDS011;30180;44.788;10.366;2022-12-07T03:45:32;3.92;;;2.33;;
44476;SDS011;30180;44.788;10.366;2022-12-07T03:48:07;3.55;;;2.20;;
44476;SDS011;30180;44.788;10.366;2022-12-07T03:50:46;3.63;;;2.00;;
44476;SDS011;30180;44.788;10.366;2022-12-07T03:53:20;3.22;;;1.90;;
44476;SDS011;30180;44.788;10.366;2022-12-07T03:55:54;4.22;;;2.28;;
44476;SDS011;30180;44.788;10.366;2022-12-07T03:58:24;2.78;;;1.80;;
44476;SDS011;30180;44.788;10.366;2022-12-07T04:00:55;3.42;;;2.05;;
44476;SDS011;30180;44.788;10.366;2022-12-07T04:03:23;3.78;;;2.33;;
44476;SDS011;30180;44.788;10.366;2022-12-07T04:05:51;4.78;;;2.33;;
44476;SDS011;30180;44.788;10.366;2022-12-07T04:08:20;3.53;;;2.40;;
44476;SDS011;30180;44.788;10.366;2022-12-07T04:10:49;4.28;;;2.42;;
44476;SDS011;30180;44.788;10.366;2022-12-07T04:13:17;3.65;;;2.13;;
44476;SDS011;30180;44.788;10.366;2022-12-07T04:15:45;4.28;;;2.58;;
44476;SDS011;30180;44.788;10.366;2022-12-07T04:18:15;3.80;;;2.35;;
44476;SDS011;30180;44.788;10.366;2022-12-07T04:20:43;3.80;;;2.35;;
44476;SDS011;30180;44.788;10.366;2022-12-07T04:23:13;4.40;;;2.47;;
44476;SDS011;30180;44.788;10.366;2022-12-07T04:25:41;3.88;;;2.17;;
44476;SDS011;30180;44.788;10.366;2022-12-07T04:28:09;4.30;;;2.55;;
44476;SDS011;30180;44.788;10.366;2022-12-07T04:30:37;3.95;;;2.60;;
44476;SDS011;30180;44.788;10.366;2022-12-07T04:33:06;3.47;;;2.10;;
44476;SDS011;30180;44.788;10.366;2022-12-07T04:35:36;3.45;;;2.17;;
44476;SDS011;30180;44.788;10.366;2022-12-07T04:38:04;3.72;;;2.28;;
44476;SDS011;30180;44.788;10.366;2022-12-07T04:40:32;4.20;;;2.20;;
44476;SDS011;30180;44.788;10.366;2022-12-07T04:43:01;4.78;;;2.40;;
44476;SDS011;30180;44.788;10.366;2022-12-07T04:45:31;4.13;;;2.40;;
44476;SDS011;30180;44.788;10.366;2022-12-07T04:47:59;3.15;;;2.10;;
44476;SDS011;30180;44.788;10.366;2022-12-07T04:50:27;3.92;;;2.67;;
44476;SDS011;30180;44.788;10.366;2022-12-07T04:52:57;3.65;;;2.38;;
44476;SDS011;30180;44.788;10.366;2022-12-07T04:55:25;3.15;;;2.08;;
44476;SDS011;30180;44.788;10.366;2022-12-07T04:57:53;3.67;;;2.28;;
44476;SDS011;30180;44.788;10.366;2022-12-07T05:00:21;4.40;;;2.45;;
44476;SDS011;30180;44.788;10.366;2022-12-07T05:02:50;4.03;;;2.40;;
44476;SDS011;30180;44.788;10.366;2022-12-07T05:05:18;3.90;;;2.35;;
44476;SDS011;30180;44.788;10.366;2022-12-07T05:07:47;4.18;;;2.38;;
44476;SDS011;30180;44.788;10.366;2022-12-07T05:10:16;3.42;;;2.10;;
44476;SDS011;30180;44.788;10.366;2022-12-07T05:12:45;3.80;;;2.45;;
44476;SDS011;30180;44.788;10.366;2022-12-07T05:15:13;4.28;;;2.05;;
44476;SDS011;30180;44.788;10.366;2022-12-07T05:17:42;3.42;;;2.20;;
44476;SDS011;30180;44.788;10.366;2022-12-07T05:20:11;3.47;;;2.38;;
44476;SDS011;30180;44.788;10.366;2022-12-07T05:22:39;3.30;;;2.15;;
44476;SDS011;30180;44.788;10.366;2022-12-07T05:25:08;3.78;;;2.60;;
44476;SDS011;30180;44.788;10.366;2022-12-07T05:27:38;4.13;;;2.33;;
44476;SDS011;30180;44.788;10.366;2022-12-07T05:30:07;4.18;;;2.28;;
44476;SDS011;30180;44.788;10.366;2022-12-07T05:32:35;3.67;;;2.17;;
44476;SDS011;30180;44.788;10.366;2022-12-07T05:35:04;3.42;;;2.15;;
44476;SDS011;30180;44.788;10.366;2022-12-07T05:37:33;3.75;;;2.30;;
44476;SDS011;30180;44.788;10.366;2022-12-07T05:40:01;3.55;;;2.35;;
44476;SDS011;30180;44.788;10.366;2022-12-07T05:42:30;4.30;;;2.60;;
44476;SDS011;30180;44.788;10.366;2022-12-07T05:45:00;4.32;;;2.30;;
44476;SDS011;30180;44.788;10.366;2022-12-07T05:47:28;3.08;;;2.30;;
44476;SDS011;30180;44.788;10.366;2022-12-07T05:49:57;3.35;;;2.38;;
44476;SDS011;30180;44.788;10.366;2022-12-07T05:52:26;3.50;;;2.33;;
44476;SDS011;30180;44.788;10.366;2022-12-07T05:54:54;3.92;;;2.25;;
44476;SDS011;30180;44.788;10.366;2022-12-07T05:57:23;4.25;;;2.40;;
44476;SDS011;30180;44.788;10.366;2022-12-07T05:59:51;3.72;;;2.30;;
44476;SDS011;30180;44.788;10.366;2022-12-07T06:02:20;4.32;;;2.70;;
44476;SDS011;30180;44.788;10.366;2022-12-07T06:04:48;4.05;;;2.40;;
44476;SDS011;30180;44.788;10.366;2022-12-07T06:07:16;3.38;;;2.17;;
44476;SDS011;30180;44.788;10.366;2022-12-07T06:09:45;3.55;;;2.08;;
44476;SDS011;30180;44.788;10.366;2022-12-07T06:12:13;4.10;;;2.40;;
44476;SDS011;30180;44.788;10.366;2022-12-07T06:15:10;3.83;;;2.40;;
44476;SDS011;30180;44.788;10.366;2022-12-07T06:17:40;4.03;;;2.38;;
44476;SDS011;30180;44.788;10.366;2022-12-07T06:20:09;3.95;;;2.60;;
44476;SDS011;30180;44.788;10.366;2022-12-07T06:22:37;4.25;;;2.38;;
44476;SDS011;30180;44.788;10.366;2022-12-07T06:25:06;3.67;;;2.30;;
44476;SDS011;30180;44.788;10.366;2022-12-07T06:27:35;4.82;;;2.50;;
44476;SDS011;30180;44.788;10.366;2022-12-07T06:30:04;3.47;;;2.28;;
44476;SDS011;30180;44.788;10.366;2022-12-07T06:32:35;4.47;;;2.45;;
44476;SDS011;30180;44.788;10.366;2022-12-07T06:35:06;3.38;;;2.38;;
44476;SDS011;30180;44.788;10.366;2022-12-07T06:37:34;4.20;;;2.50;;
44476;SDS011;30180;44.788;10.366;2022-12-07T06:40:03;4.38;;;2.30;;
44476;SDS011;30180;44.788;10.366;2022-12-07T06:42:32;3.10;;;2.17;;
44476;SDS011;30180;44.788;10.366;2022-12-07T06:45:01;4.40;;;2.47;;
44476;SDS011;30180;44.788;10.366;2022-12-07T06:47:30;4.20;;;2.67;;
44476;SDS011;30180;44.788;10.366;2022-12-07T06:50:11;4.57;;;2.60;;
44476;SDS011;30180;44.788;10.366;2022-12-07T06:52:39;4.22;;;2.50;;
44476;SDS011;30180;44.788;10.366;2022-12-07T06:55:07;4.13;;;2.22;;
44476;SDS011;30180;44.788;10.366;2022-12-07T06:57:36;3.85;;;2.30;;
44476;SDS011;30180;44.788;10.366;2022-12-07T07:00:05;3.67;;;2.30;;
44476;SDS011;30180;44.788;10.366;2022-12-07T07:02:34;3.72;;;2.22;;
44476;SDS011;30180;44.788;10.366;2022-12-07T07:05:02;4.20;;;2.50;;
44476;SDS011;30180;44.788;10.366;2022-12-07T07:07:32;3.88;;;2.20;;
44476;SDS011;30180;44.788;10.366;2022-12-07T07:10:20;3.25;;;2.28;;
44476;SDS011;30180;44.788;10.366;2022-12-07T07:12:49;3.60;;;2.40;;
44476;SDS011;30180;44.788;10.366;2022-12-07T07:15:22;3.70;;;2.30;;
44476;SDS011;30180;44.788;10.366;2022-12-07T07:17:51;3.70;;;2.33;;
44476;SDS011;30180;44.788;10.366;2022-12-07T07:20:19;5.53;;;2.33;;
44476;SDS011;30180;44.788;10.366;2022-12-07T07:22:50;4.43;;;2.65;;
44476;SDS011;30180;44.788;10.366;2022-12-07T07:25:18;4.38;;;2.85;;
44476;SDS011;30180;44.788;10.366;2022-12-07T07:27:46;3.90;;;2.35;;
44476;SDS011;30180;44.788;10.366;2022-12-07T07:30:15;4.28;;;2.50;;
44476;SDS011;30180;44.788;10.366;2022-12-07T07:32:43;2.78;;;2.20;;
44476;SDS011;30180;44.788;10.366;2022-12-07T07:35:11;4.70;;;2.60;;
44476;SDS011;30180;44.788;10.366;2022-12-07T07:37:40;5.10;;;2.40;;
44476;SDS011;30180;44.788;10.366;2022-12-07T07:40:11;4.55;;;2.58;;
44476;SDS011;30180;44.788;10.366;2022-12-07T07:42:39;3.70;;;2.60;;
44476;SDS011;30180;44.788;10.366;2022-12-07T07:45:08;4.28;;;2.63;;
44476;SDS011;30180;44.788;10.366;2022-12-07T07:47:37;3.58;;;2.05;;
44476;SDS011;30180;44.788;10.366;2022-12-07T07:50:06;3.97;;;2.60;;
44476;SDS011;30180;44.788;10.366;2022-12-07T07:52:35;3.40;;;2.30;;
44476;SDS011;30180;44.788;10.366;2022-12-07T07:55:03;3.80;;;2.17;;
44476;SDS011;30180;44.788;10.366;2022-12-07T07:57:36;3.70;;;2.30;;
44476;SDS011;30180;44.788;10.366;2022-12-07T08:00:06;3.70;;;2.30;;
44476;SDS011;30180;44.788;10.366;2022-12-07T08:02:36;3.45;;;2.47;;
44476;SDS011;30180;44.788;10.366;2022-12-07T08:05:04;4.00;;;2.47;;
44476;SDS011;30180;44.788;10.366;2022-12-07T08:07:33;3.50;;;2.20;;
44476;SDS011;30180;44.788;10.366;2022-12-07T08:10:02;3.70;;;2.30;;
44476;SDS011;30180;44.788;10.366;2022-12-07T08:12:31;3.15;;;1.90;;
44476;SDS011;30180;44.788;10.366;2022-12-07T08:15:25;3.50;;;2.10;;
44476;SDS011;30180;44.788;10.366;2022-12-07T08:17:54;3.20;;;2.05;;
44476;SDS011;30180;44.788;10.366;2022-12-07T08:20:22;3.65;;;2.58;;
44476;SDS011;30180;44.788;10.366;2022-12-07T08:22:51;3.65;;;2.45;;
44476;SDS011;30180;44.788;10.366;2022-12-07T08:25:19;4.50;;;2.05;;
44476;SDS011;30180;44.788;10.366;2022-12-07T08:27:50;3.13;;;2.22;;
44476;SDS011;30180;44.788;10.366;2022-12-07T08:30:19;3.42;;;2.10;;
44476;SDS011;30180;44.788;10.366;2022-12-07T08:32:48;4.68;;;2.30;;
44476;SDS011;30180;44.788;10.366;2022-12-07T08:35:17;4.30;;;2.20;;
44476;SDS011;30180;44.788;10.366;2022-12-07T08:37:45;4.20;;;2.42;;
44476;SDS011;30180;44.788;10.366;2022-12-07T08:40:13;3.35;;;2.20;;
44476;SDS011;30180;44.788;10.366;2022-12-07T08:42:42;4.70;;;2.30;;
44476;SDS011;30180;44.788;10.366;2022-12-07T08:45:12;4.57;;;2.20;;
44476;SDS011;30180;44.788;10.366;2022-12-07T08:47:49;4.53;;;2.25;;
44476;SDS011;30180;44.788;10.366;2022-12-07T08:50:22;3.35;;;2.25;;
44476;SDS011;30180;44.788;10.366;2022-12-07T08:52:52;2.75;;;1.98;;
44476;SDS011;30180;44.788;10.366;2022-12-07T08:55:24;3.60;;;2.22;;
44476;SDS011;30180;44.788;10.366;2022-12-07T08:57:53;3.75;;;2.28;;
44476;SDS011;30180;44.788;10.366;2022-12-07T09:00:23;3.22;;;2.08;;
44476;SDS011;30180;44.788;10.366;2022-12-07T09:02:52;3.60;;;2.20;;
44476;SDS011;30180;44.788;10.366;2022-12-07T09:05:21;3.45;;;2.10;;
44476;SDS011;30180;44.788;10.366;2022-12-07T09:07:50;3.15;;;2.03;;
44476;SDS011;30180;44.788;10.366;2022-12-07T09:10:21;3.08;;;2.13;;
44476;SDS011;30180;44.788;10.366;2022-12-07T09:12:50;3.30;;;1.95;;
44476;SDS011;30180;44.788;10.366;2022-12-07T09:15:18;4.18;;;2.60;;
44476;SDS011;30180;44.788;10.366;2022-12-07T09:17:48;3.10;;;1.90;;
44476;SDS011;30180;44.788;10.366;2022-12-07T09:20:16;4.90;;;2.30;;
44476;SDS011;30180;44.788;10.366;2022-12-07T09:22:52;3.45;;;2.17;;
44476;SDS011;30180;44.788;10.366;2022-12-07T09:25:21;3.65;;;2.30;;
44476;SDS011;30180;44.788;10.366;2022-12-07T09:27:54;3.42;;;1.95;;
44476;SDS011;30180;44.788;10.366;2022-12-07T09:30:23;3.15;;;2.10;;
44476;SDS011;30180;44.788;10.366;2022-12-07T09:32:54;3.40;;;2.28;;
44476;SDS011;30180;44.788;10.366;2022-12-07T09:35:24;3.75;;;2.13;;
44476;SDS011;30180;44.788;10.366;2022-12-07T09:37:53;3.83;;;2.28;;
44476;SDS011;30180;44.788;10.366;2022-12-07T09:40:22;3.45;;;1.90;;
44476;SDS011;30180;44.788;10.366;2022-12-07T09:42:51;3.15;;;2.10;;
44476;SDS011;30180;44.788;10.366;2022-12-07T09:47:51;4.45;;;2.25;;
44476;SDS011;30180;44.788;10.366;2022-12-07T09:50:22;3.38;;;2.10;;
44476;SDS011;30180;44.788;10.366;2022-12-07T09:52:53;3.22;;;2.10;;
44476;SDS011;30180;44.788;10.366;2022-12-07T09:55:31;3.65;;;2.28;;
44476;SDS011;30180;44.788;10.366;2022-12-07T09:58:01;3.40;;;2.15;;
44476;SDS011;30180;44.788;10.366;2022-12-07T10:00:30;3.33;;;2.30;;
44476;SDS011;30180;44.788;10.366;2022-12-07T10:02:58;3.22;;;1.88;;
44476;SDS011;30180;44.788;10.366;2022-12-07T10:05:30;4.05;;;2.03;;
44476;SDS011;30180;44.788;10.366;2022-12-07T10:08:02;3.30;;;2.35;;
44476;SDS011;30180;44.788;10.366;2022-12-07T10:10:31;3.20;;;2.10;;
44476;SDS011;30180;44.788;10.366;2022-12-07T10:13:05;3.97;;;2.30;;
44476;SDS011;30180;44.788;10.366;2022-12-07T10:15:42;3.30;;;1.97;;
44476;SDS011;30180;44.788;10.366;2022-12-07T10:18:18;3.30;;;2.03;;
44476;SDS011;30180;44.788;10.366;2022-12-07T10:20:49;3.35;;;2.20;;
44476;SDS011;30180;44.788;10.366;2022-12-07T10:23:28;3.15;;;2.10;;
44476;SDS011;30180;44.788;10.366;2022-12-07T10:25:57;2.90;;;2.08;;
44476;SDS011;30180;44.788;10.366;2022-12-07T10:28:27;3.35;;;1.92;;
44476;SDS011;30180;44.788;10.366;2022-12-07T10:31:15;3.05;;;2.10;;
44476;SDS011;30180;44.788;10.366;2022-12-07T10:33:49;2.67;;;1.70;;
44476;SDS011;30180;44.788;10.366;2022-12-07T10:36:22;3.15;;;2.08;;
44476;SDS011;30180;44.788;10.366;2022-12-07T10:38:53;2.60;;;1.70;;
44476;SDS011;30180;44.788;10.366;2022-12-07T10:41:26;4.00;;;2.15;;
44476;SDS011;30180;44.788;10.366;2022-12-07T10:43:55;4.15;;;2.55;;
44476;SDS011;30180;44.788;10.366;2022-12-07T10:49:44;3.22;;;2.10;;
44476;SDS011;30180;44.788;10.366;2022-12-07T10:52:30;3.00;;;1.83;;
44476;SDS011;30180;44.788;10.366;2022-12-07T10:55:21;3.10;;;2.00;;
44476;SDS011;30180;44.788;10.366;2022-12-07T10:58:01;2.70;;;1.85;;
44476;SDS011;30180;44.788;10.366;2022-12-07T11:00:43;3.58;;;2.30;;
44476;SDS011;30180;44.788;10.366;2022-12-07T11:03:33;2.70;;;1.92;;
44476;SDS011;30180;44.788;10.366;2022-12-07T11:06:17;3.67;;;2.20;;
44476;SDS011;30180;44.788;10.366;2022-12-07T11:08:56;3.58;;;2.20;;
44476;SDS011;30180;44.788;10.366;2022-12-07T11:11:32;3.80;;;2.00;;
44476;SDS011;30180;44.788;10.366;2022-12-07T11:14:05;3.13;;;2.10;;
44476;SDS011;30180;44.788;10.366;2022-12-07T11:16:50;2.53;;;1.90;;
44476;SDS011;30180;44.788;10.366;2022-12-07T11:19:30;3.03;;;2.00;;
44476;SDS011;30180;44.788;10.366;2022-12-07T11:22:11;3.00;;;1.90;;
44476;SDS011;30180;44.788;10.366;2022-12-07T11:24:44;3.55;;;2.13;;
44476;SDS011;30180;44.788;10.366;2022-12-07T11:27:23;3.47;;;2.17;;
44476;SDS011;30180;44.788;10.366;2022-12-07T11:30:02;3.33;;;2.00;;
44476;SDS011;30180;44.788;10.366;2022-12-07T11:35:36;3.00;;;2.08;;
44476;SDS011;30180;44.788;10.366;2022-12-07T11:38:11;3.58;;;2.20;;
44476;SDS011;30180;44.788;10.366;2022-12-07T11:40:48;3.47;;;2.25;;
44476;SDS011;30180;44.788;10.366;2022-12-07T11:43:20;2.90;;;1.92;;
44476;SDS011;30180;44.788;10.366;2022-12-07T11:45:53;3.72;;;2.17;;
44476;SDS011;30180;44.788;10.366;2022-12-07T11:48:29;3.47;;;2.05;;
44476;SDS011;30180;44.788;10.366;2022-12-07T11:51:02;2.72;;;1.85;;
44476;SDS011;30180;44.788;10.366;2022-12-07T11:53:36;2.95;;;1.88;;
44476;SDS011;30180;44.788;10.366;2022-12-07T11:56:09;3.60;;;2.17;;
44476;SDS011;30180;44.788;10.366;2022-12-07T11:58:44;3.25;;;2.00;;
44476;SDS011;30180;44.788;10.366;2022-12-07T12:01:21;3.17;;;2.00;;
44476;SDS011;30180;44.788;10.366;2022-12-07T12:04:01;3.03;;;2.05;;
44476;SDS011;30180;44.788;10.366;2022-12-07T12:06:34;3.08;;;2.03;;
44476;SDS011;30180;44.788;10.366;2022-12-07T12:09:04;3.17;;;1.95;;
44476;SDS011;30180;44.788;10.366;2022-12-07T12:12:05;2.92;;;1.80;;
44476;SDS011;30180;44.788;10.366;2022-12-07T12:15:32;3.20;;;1.98;;
44476;SDS011;30180;44.788;10.366;2022-12-07T12:18:17;2.72;;;1.80;;
44476;SDS011;30180;44.788;10.366;2022-12-07T12:21:00;2.55;;;1.70;;
44476;SDS011;30180;44.788;10.366;2022-12-07T12:23:35;2.33;;;1.75;;
44476;SDS011;30180;44.788;10.366;2022-12-07T12:26:08;3.00;;;1.80;;
44476;SDS011;30180;44.788;10.366;2022-12-07T12:28:54;3.00;;;1.92;;
44476;SDS011;30180;44.788;10.366;2022-12-07T12:31:32;3.00;;;2.05;;
44476;SDS011;30180;44.788;10.366;2022-12-07T12:34:03;2.47;;;1.70;;
44476;SDS011;30180;44.788;10.366;2022-12-07T12:36:52;2.88;;;1.77;;
44476;SDS011;30180;44.788;10.366;2022-12-07T12:39:22;2.90;;;2.00;;
44476;SDS011;30180;44.788;10.366;2022-12-07T12:41:58;2.78;;;1.73;;
44476;SDS011;30180;44.788;10.366;2022-12-07T12:44:41;2.75;;;1.90;;
44476;SDS011;30180;44.788;10.366;2022-12-07T12:47:42;2.60;;;1.75;;
44476;SDS011;30180;44.788;10.366;2022-12-07T12:50:21;2.58;;;1.60;;
44476;SDS011;30180;44.788;10.366;2022-12-07T12:52:55;2.42;;;1.77;;
44476;SDS011;30180;44.788;10.366;2022-12-07T12:58:42;2.58;;;1.77;;
44476;SDS011;30180;44.788;10.366;2022-12-07T13:04:17;3.08;;;1.90;;
44476;SDS011;30180;44.788;10.366;2022-12-07T13:06:51;2.60;;;1.70;;
44476;SDS011;30180;44.788;10.366;2022-12-07T13:09:21;2.65;;;1.65;;
44476;SDS011;30180;44.788;10.366;2022-12-07T13:11:56;2.55;;;1.80;;
44476;SDS011;30180;44.788;10.366;2022-12-07T13:20:41;2.63;;;1.60;;
44476;SDS011;30180;44.788;10.366;2022-12-07T13:23:12;2.20;;;1.65;;
44476;SDS011;30180;44.788;10.366;2022-12-07T13:25:46;2.90;;;1.80;;
44476;SDS011;30180;44.788;10.366;2022-12-07T13:28:19;3.05;;;1.83;;
44476;SDS011;30180;44.788;10.366;2022-12-07T13:30:57;3.63;;;2.00;;
44476;SDS011;30180;44.788;10.366;2022-12-07T13:33:36;2.75;;;1.63;;
44476;SDS011;30180;44.788;10.366;2022-12-07T13:36:09;2.90;;;1.60;;
44476;SDS011;30180;44.788;10.366;2022-12-07T13:38:48;2.83;;;1.73;;
44476;SDS011;30180;44.788;10.366;2022-12-07T13:41:23;2.50;;;1.67;;
44476;SDS011;30180;44.788;10.366;2022-12-07T13:43:55;3.17;;;1.80;;
44476;SDS011;30180;44.788;10.366;2022-12-07T13:46:43;2.03;;;1.42;;
44476;SDS011;30180;44.788;10.366;2022-12-07T13:49:17;2.63;;;1.65;;
44476;SDS011;30180;44.788;10.366;2022-12-07T13:54:17;3.15;;;1.92;;
44476;SDS011;30180;44.788;10.366;2022-12-07T13:56:49;3.47;;;1.83;;
44476;SDS011;30180;44.788;10.366;2022-12-07T13:59:19;2.67;;;1.80;;
44476;SDS011;30180;44.788;10.366;2022-12-07T14:01:50;3.10;;;1.80;;
44476;SDS011;30180;44.788;10.366;2022-12-07T14:04:27;3.83;;;2.15;;
44476;SDS011;30180;44.788;10.366;2022-12-07T14:07:00;2.72;;;1.63;;
44476;SDS011;30180;44.788;10.366;2022-12-07T14:09:29;3.20;;;1.88;;
44476;SDS011;30180;44.788;10.366;2022-12-07T14:11:57;2.65;;;1.60;;
44476;SDS011;30180;44.788;10.366;2022-12-07T14:14:26;2.33;;;1.60;;
44476;SDS011;30180;44.788;10.366;2022-12-07T14:17:08;2.50;;;1.55;;
44476;SDS011;30180;44.788;10.366;2022-12-07T14:19:46;2.80;;;1.83;;
44476;SDS011;30180;44.788;10.366;2022-12-07T14:22:25;4.32;;;1.90;;
44476;SDS011;30180;44.788;10.366;2022-12-07T14:24:59;4.28;;;2.05;;
44476;SDS011;30180;44.788;10.366;2022-12-07T14:27:39;3.43;;;1.83;;
44476;SDS011;30180;44.788;10.366;2022-12-07T14:30:15;4.30;;;2.20;;
44476;SDS011;30180;44.788;10.366;2022-12-07T14:32:45;3.67;;;2.25;;
44476;SDS011;30180;44.788;10.366;2022-12-07T14:35:20;5.15;;;2.50;;
44476;SDS011;30180;44.788;10.366;2022-12-07T14:37:49;8.77;;;2.80;;
44476;SDS011;30180;44.788;10.366;2022-12-07T14:40:19;8.20;;;2.88;;
44476;SDS011;30180;44.788;10.366;2022-12-07T14:42:50;4.63;;;2.70;;
44476;SDS011;30180;44.788;10.366;2022-12-07T14:45:23;11.90;;;3.22;;
44476;SDS011;30180;44.788;10.366;2022-12-07T14:47:51;6.00;;;3.22;;
44476;SDS011;30180;44.788;10.366;2022-12-07T14:50:41;6.28;;;2.97;;
44476;SDS011;30180;44.788;10.366;2022-12-07T14:53:33;7.45;;;3.05;;
44476;SDS011;30180;44.788;10.366;2022-12-07T14:56:03;9.95;;;3.50;;
44476;SDS011;30180;44.788;10.366;2022-12-07T14:58:32;12.38;;;3.47;;
44476;SDS011;30180;44.788;10.366;2022-12-07T15:01:01;7.85;;;3.45;;
44476;SDS011;30180;44.788;10.366;2022-12-07T15:03:29;10.25;;;4.22;;
44476;SDS011;30180;44.788;10.366;2022-12-07T15:05:58;7.47;;;3.75;;
44476;SDS011;30180;44.788;10.366;2022-12-07T15:08:26;9.82;;;3.88;;
44476;SDS011;30180;44.788;10.366;2022-12-07T15:10:56;11.27;;;3.97;;
44476;SDS011;30180;44.788;10.366;2022-12-07T15:13:24;12.90;;;3.90;;
44476;SDS011;30180;44.788;10.366;2022-12-07T15:16:21;9.00;;;4.13;;
44476;SDS011;30180;44.788;10.366;2022-12-07T15:18:49;10.60;;;4.43;;
44476;SDS011;30180;44.788;10.366;2022-12-07T15:21:38;7.78;;;3.80;;
44476;SDS011;30180;44.788;10.366;2022-12-07T15:24:08;7.30;;;3.65;;
44476;SDS011;30180;44.788;10.366;2022-12-07T15:26:39;9.65;;;4.57;;
44476;SDS011;30180;44.788;10.366;2022-12-07T15:29:08;10.13;;;5.22;;